createdAt,value
2019-02-07T00:00:24.207Z,41.2
2019-02-07T00:01:15.353Z,41.1
2019-02-07T00:02:04.891Z,41.1
2019-02-07T00:02:54.682Z,41.1
2019-02-07T00:03:44.711Z,41.1
2019-02-07T00:04:34.838Z,41.1
2019-02-07T00:05:24.908Z,41.1
2019-02-07T00:06:14.045Z,41.1
2019-02-07T00:07:06.850Z,41.1
2019-02-07T00:07:55.405Z,41
2019-02-07T00:08:45.184Z,41
2019-02-07T00:09:34.842Z,41
2019-02-07T00:10:24.081Z,41
2019-02-07T00:11:15.244Z,40.9
2019-02-07T00:12:05.642Z,40.9
2019-02-07T00:12:55.197Z,40.9
2019-02-07T00:13:45.112Z,40.9
2019-02-07T00:14:44.634Z,40.9
2019-02-07T00:15:25.524Z,40.9
2019-02-07T00:16:17.615Z,40.9
2019-02-07T00:17:05.929Z,40.9
2019-02-07T00:17:55.150Z,40.8
2019-02-07T00:18:45.272Z,40.8
2019-02-07T00:19:35.387Z,40.8
2019-02-07T00:20:25.040Z,40.8
2019-02-07T00:21:16.244Z,40.8
2019-02-07T00:22:05.456Z,40.8
2019-02-07T00:22:56.341Z,40.8
2019-02-07T00:23:46.106Z,40.8
2019-02-07T00:24:47.899Z,40.8
2019-02-07T00:25:28.388Z,40.8
2019-02-07T00:26:15.776Z,40.7
2019-02-07T00:27:06.450Z,40.7
2019-02-07T00:27:56.138Z,40.7
2019-02-07T00:28:46.181Z,40.7
2019-02-07T00:29:36.798Z,40.7
2019-02-07T00:30:26.596Z,40.6
2019-02-07T00:31:16.843Z,40.6
2019-02-07T00:32:06.988Z,40.6
2019-02-07T00:32:55.957Z,40.6
2019-02-07T00:33:46.841Z,40.6
2019-02-07T00:34:39.254Z,40.6
2019-02-07T00:35:26.658Z,40.6
2019-02-07T00:36:16.453Z,40.6
2019-02-07T00:37:07.047Z,40.5
2019-02-07T00:37:56.320Z,40.5
2019-02-07T00:38:46.323Z,40.4
2019-02-07T00:39:36.678Z,40.5
2019-02-07T00:40:26.999Z,40.5
2019-02-07T00:41:17.360Z,40.4
2019-02-07T00:42:06.840Z,40.4
2019-02-07T00:42:57.745Z,40.4
2019-02-07T00:43:49.218Z,40.4
2019-02-07T00:44:37.297Z,40.4
2019-02-07T00:45:27.340Z,40.4
2019-02-07T00:46:17.242Z,40.4
2019-02-07T00:47:08.268Z,40.4
2019-02-07T00:47:57.277Z,40.3
2019-02-07T00:48:47.862Z,40.4
2019-02-07T00:49:37.629Z,40.3
2019-02-07T00:50:28.040Z,40.3
2019-02-07T00:51:18.427Z,40.3
2019-02-07T00:52:08.217Z,40.3
2019-02-07T00:53:00.291Z,40.3
2019-02-07T00:53:48.304Z,40.3
2019-02-07T00:54:38.386Z,40.3
2019-02-07T00:55:27.809Z,40.3
2019-02-07T00:56:18.119Z,40.2
2019-02-07T00:57:08.854Z,40.2
2019-02-07T00:57:58.815Z,40.2
2019-02-07T00:58:48.372Z,40.2
2019-02-07T00:59:38.342Z,40.1
2019-02-07T01:00:28.453Z,40.2
2019-02-07T01:01:19.119Z,40.1
2019-02-07T01:02:10.856Z,40.1
2019-02-07T01:02:58.883Z,40.1
2019-02-07T01:03:48.637Z,40.1
2019-02-07T01:04:39.001Z,40.1
2019-02-07T01:05:29.693Z,40.1
2019-02-07T01:06:19.071Z,40.1
2019-02-07T01:07:08.439Z,40.1
2019-02-07T01:07:58.151Z,40
2019-02-07T01:08:49.368Z,40
2019-02-07T01:09:38.774Z,40
2019-02-07T01:10:29.023Z,40
2019-02-07T01:11:20.565Z,39.9
2019-02-07T01:12:09.271Z,40
2019-02-07T01:12:59.848Z,39.9
2019-02-07T01:13:49.455Z,39.9
2019-02-07T01:14:40.442Z,39.9
2019-02-07T01:15:30.049Z,39.9
2019-02-07T01:16:19.637Z,39.9
2019-02-07T01:17:09.862Z,39.9
2019-02-07T01:17:59.640Z,39.9
2019-02-07T01:18:50.005Z,39.9
2019-02-07T01:19:40.036Z,39.9
2019-02-07T01:20:31.742Z,39.8
2019-02-07T01:21:19.972Z,39.8
2019-02-07T01:22:10.260Z,39.8
2019-02-07T01:23:00.629Z,39.8
2019-02-07T01:23:50.337Z,39.8
2019-02-07T01:24:40.395Z,39.8
2019-02-07T01:25:29.724Z,39.8
2019-02-07T01:26:20.704Z,39.8
2019-02-07T01:27:10.812Z,39.8
2019-02-07T01:28:00.608Z,39.7
2019-02-07T01:28:50.389Z,39.8
2019-02-07T01:29:43.257Z,39.7
2019-02-07T01:30:31.079Z,39.7
2019-02-07T01:31:21.107Z,39.7
2019-02-07T01:32:10.916Z,39.7
2019-02-07T01:33:00.974Z,39.6
2019-02-07T01:33:51.037Z,39.7
2019-02-07T01:34:40.294Z,39.6
2019-02-07T01:35:31.829Z,39.6
2019-02-07T01:36:20.922Z,39.6
2019-02-07T01:37:10.437Z,39.6
2019-02-07T01:38:01.339Z,39.6
2019-02-07T01:38:53.154Z,39.6
2019-02-07T01:39:41.518Z,39.6
2019-02-07T01:40:30.944Z,39.6
2019-02-07T01:41:21.298Z,39.5
2019-02-07T01:42:10.813Z,39.5
2019-02-07T01:43:01.694Z,39.5
2019-02-07T01:43:50.998Z,39.5
2019-02-07T01:44:43.433Z,39.5
2019-02-07T01:45:32.114Z,39.4
2019-02-07T01:46:22.196Z,39.4
2019-02-07T01:47:11.253Z,39.5
2019-02-07T01:48:03.741Z,39.4
2019-02-07T01:48:51.070Z,39.4
2019-02-07T01:49:41.872Z,39.4
2019-02-07T01:50:31.383Z,39.4
2019-02-07T01:51:21.420Z,39.4
2019-02-07T01:52:12.458Z,39.4
2019-02-07T01:53:01.821Z,39.4
2019-02-07T01:53:54.058Z,39.4
2019-02-07T01:54:42.775Z,39.3
2019-02-07T01:55:32.835Z,39.3
2019-02-07T01:56:22.718Z,39.3
2019-02-07T01:57:13.295Z,39.3
2019-02-07T01:58:02.355Z,39.3
2019-02-07T01:58:52.330Z,39.4
2019-02-07T01:59:42.200Z,39.6
2019-02-07T02:00:32.921Z,39.9
2019-02-07T02:01:22.695Z,40.3
2019-02-07T02:02:12.998Z,40.6
2019-02-07T02:03:05.254Z,40.8
2019-02-07T02:03:53.444Z,41.1
2019-02-07T02:04:43.490Z,41.3
2019-02-07T02:05:33.559Z,41.5
2019-02-07T02:06:23.060Z,41.7
2019-02-07T02:07:13.139Z,41.9
2019-02-07T02:08:03.552Z,42.1
2019-02-07T02:08:53.882Z,42.3
2019-02-07T02:09:43.554Z,42.4
2019-02-07T02:10:33.042Z,42.6
2019-02-07T02:11:22.346Z,42.6
2019-02-07T02:12:15.824Z,42.7
2019-02-07T02:13:04.135Z,42.8
2019-02-07T02:13:53.284Z,42.9
2019-02-07T02:14:42.674Z,42.9
2019-02-07T02:15:33.675Z,43.1
2019-02-07T02:16:26.706Z,43.2
2019-02-07T02:17:13.524Z,43.3
2019-02-07T02:18:04.416Z,43.4
2019-02-07T02:18:53.634Z,43.6
2019-02-07T02:19:43.708Z,43.7
2019-02-07T02:20:34.038Z,43.9
2019-02-07T02:21:26.909Z,43.9
2019-02-07T02:22:14.678Z,44
2019-02-07T02:23:04.247Z,44.1
2019-02-07T02:23:54.313Z,44.2
2019-02-07T02:24:48.559Z,44.3
2019-02-07T02:25:35.036Z,44.4
2019-02-07T02:26:25.017Z,44.5
2019-02-07T02:27:15.071Z,44.6
2019-02-07T02:28:04.878Z,44.7
2019-02-07T02:28:55.170Z,44.8
2019-02-07T02:29:45.225Z,44.9
2019-02-07T02:30:37.987Z,45
2019-02-07T02:31:24.263Z,45.1
2019-02-07T02:32:14.916Z,45.1
2019-02-07T02:33:05.026Z,45.2
2019-02-07T02:33:55.597Z,45.3
2019-02-07T02:34:45.316Z,45.3
2019-02-07T02:35:35.496Z,45.3
2019-02-07T02:36:25.466Z,45.3
2019-02-07T02:37:15.211Z,45.4
2019-02-07T02:38:04.452Z,45.4
2019-02-07T02:38:55.610Z,45.4
2019-02-07T02:39:46.461Z,45.5
2019-02-07T02:40:35.733Z,45.6
2019-02-07T02:41:25.791Z,45.6
2019-02-07T02:42:15.290Z,45.6
2019-02-07T02:43:05.687Z,45.7
2019-02-07T02:43:55.672Z,45.7
2019-02-07T02:44:46.315Z,45.8
2019-02-07T02:45:42.824Z,45.8
2019-02-07T02:46:25.309Z,45.9
2019-02-07T02:47:15.666Z,45.9
2019-02-07T02:48:06.262Z,45.9
2019-02-07T02:48:56.102Z,45.9
2019-02-07T02:49:46.362Z,45.9
2019-02-07T02:50:36.200Z,45.9
2019-02-07T02:51:26.225Z,45.9
2019-02-07T02:52:16.037Z,46
2019-02-07T02:53:06.352Z,46.1
2019-02-07T02:53:56.911Z,46.1
2019-02-07T02:54:48.851Z,46.1
2019-02-07T02:55:36.856Z,46.1
2019-02-07T02:56:26.594Z,46.2
2019-02-07T02:57:16.921Z,46.2
2019-02-07T02:58:07.337Z,46.2
2019-02-07T02:58:55.751Z,46.3
2019-02-07T02:59:47.103Z,46.3
2019-02-07T03:00:36.677Z,46.3
2019-02-07T03:01:26.911Z,46.3
2019-02-07T03:02:16.703Z,46.4
2019-02-07T03:03:07.351Z,46.4
2019-02-07T03:03:57.833Z,46.4
2019-02-07T03:04:47.856Z,46.4
2019-02-07T03:08:19.716Z,46.4
2019-02-07T03:09:09.488Z,46.5
2019-02-07T03:09:59.351Z,46.6
2019-02-07T03:10:50.753Z,46.7
2019-02-07T03:11:39.423Z,46.7
2019-02-07T03:12:29.484Z,46.8
2019-02-07T03:13:19.217Z,46.8
2019-02-07T03:14:10.170Z,46.8
2019-02-07T03:14:59.958Z,46.8
2019-02-07T03:15:54.547Z,46.8
2019-02-07T03:16:40.023Z,46.8
2019-02-07T03:17:30.341Z,46.8
2019-02-07T03:18:19.346Z,46.9
2019-02-07T03:19:10.240Z,46.9
2019-02-07T03:20:02.674Z,46.9
2019-02-07T03:20:50.404Z,46.9
2019-02-07T03:21:39.610Z,46.9
2019-02-07T03:22:29.965Z,46.9
2019-02-07T03:23:20.505Z,46.9
2019-02-07T03:24:10.585Z,46.9
2019-02-07T03:25:00.737Z,46.9
2019-02-07T03:25:49.970Z,46.9
2019-02-07T03:26:40.542Z,46.9
2019-02-07T03:27:30.569Z,46.9
2019-02-07T03:28:20.888Z,46.9
2019-02-07T03:29:13.302Z,46.9
2019-02-07T03:30:01.496Z,46.9
2019-02-07T03:30:51.306Z,46.9
2019-02-07T03:31:41.043Z,46.9
2019-02-07T03:32:31.298Z,47
2019-02-07T03:33:20.990Z,46.9
2019-02-07T03:34:10.121Z,47
2019-02-07T03:35:01.898Z,47
2019-02-07T03:35:51.396Z,47
2019-02-07T03:36:41.409Z,46.9
2019-02-07T03:37:31.483Z,46.9
2019-02-07T03:38:24.244Z,46.9
2019-02-07T03:39:11.356Z,46.9
2019-02-07T03:40:01.241Z,46.9
2019-02-07T03:40:51.699Z,46.9
2019-02-07T03:41:41.087Z,46.9
2019-02-07T03:42:30.803Z,46.9
2019-02-07T03:43:21.671Z,46.9
2019-02-07T03:44:12.010Z,46.9
2019-02-07T03:45:01.456Z,46.9
2019-02-07T03:46:05.651Z,46.9
2019-02-07T03:46:41.188Z,46.9
2019-02-07T03:47:34.496Z,46.9
2019-02-07T03:48:22.089Z,46.9
2019-02-07T03:49:11.589Z,46.8
2019-02-07T03:50:01.751Z,46.9
2019-02-07T03:50:52.209Z,46.8
2019-02-07T03:51:42.202Z,46.8
2019-02-07T03:52:31.408Z,46.8
2019-02-07T03:53:22.730Z,46.8
2019-02-07T03:54:12.396Z,46.8
2019-02-07T03:55:03.038Z,46.8
2019-02-07T03:55:52.634Z,46.8
2019-02-07T03:56:45.295Z,46.8
2019-02-07T03:57:32.344Z,46.8
2019-02-07T03:58:22.968Z,46.8
2019-02-07T03:59:12.470Z,46.8
2019-02-07T04:00:03.169Z,46.8
2019-02-07T04:00:53.122Z,46.8
2019-02-07T04:01:43.185Z,46.8
2019-02-07T04:02:33.538Z,46.7
2019-02-07T04:03:23.637Z,46.7
2019-02-07T04:04:13.639Z,46.7
2019-02-07T04:05:03.772Z,46.7
2019-02-07T04:05:56.422Z,46.7
2019-02-07T04:06:43.242Z,46.7
2019-02-07T04:07:33.708Z,46.6
2019-02-07T04:08:23.129Z,46.6
2019-02-07T04:09:13.224Z,46.6
2019-02-07T04:10:02.945Z,46.6
2019-02-07T04:10:53.252Z,46.6
2019-02-07T04:11:44.089Z,46.6
2019-02-07T04:12:33.937Z,46.6
2019-02-07T04:13:23.998Z,46.6
2019-02-07T04:14:13.759Z,46.6
2019-02-07T04:15:06.503Z,46.6
2019-02-07T04:15:53.880Z,46.6
2019-02-07T04:16:44.298Z,46.5
2019-02-07T04:17:34.379Z,46.5
2019-02-07T04:18:24.164Z,46.5
2019-02-07T04:19:14.687Z,46.5
2019-02-07T04:20:04.917Z,46.5
2019-02-07T04:20:54.899Z,46.4
2019-02-07T04:21:44.586Z,46.4
2019-02-07T04:22:34.173Z,46.4
2019-02-07T04:23:24.436Z,46.4
2019-02-07T04:24:20.544Z,46.4
2019-02-07T04:25:21.084Z,46.4
2019-02-07T04:25:54.608Z,46.4
2019-02-07T04:26:44.664Z,46.4
2019-02-07T04:27:34.803Z,46.4
2019-02-07T04:28:24.618Z,46.4
2019-02-07T04:29:15.458Z,46.4
2019-02-07T04:30:05.818Z,46.4
2019-02-07T04:30:55.314Z,46.3
2019-02-07T04:31:45.320Z,46.3
2019-02-07T04:32:34.892Z,46.3
2019-02-07T04:33:27.482Z,46.3
2019-02-07T04:34:14.646Z,46.3
2019-02-07T04:35:05.908Z,46.3
2019-02-07T04:35:55.407Z,46.3
2019-02-07T04:36:44.836Z,46.3
2019-02-07T04:37:35.547Z,46.3
2019-02-07T04:38:25.464Z,46.3
2019-02-07T04:39:15.150Z,46.3
2019-02-07T04:40:06.218Z,46.3
2019-02-07T04:40:55.933Z,46.3
2019-02-07T04:41:46.261Z,46.2
2019-02-07T04:42:38.681Z,46.2
2019-02-07T04:43:26.120Z,46.2
2019-02-07T04:44:15.895Z,46.2
2019-02-07T04:45:06.135Z,46.2
2019-02-07T04:45:56.555Z,46.2
2019-02-07T04:46:46.630Z,46.1
2019-02-07T04:47:36.132Z,46.1
2019-02-07T04:48:26.759Z,46.1
2019-02-07T04:49:16.261Z,46.1
2019-02-07T04:50:06.650Z,46.1
2019-02-07T04:50:56.219Z,46.1
2019-02-07T04:51:49.212Z,46.1
2019-02-07T04:52:36.218Z,46.1
2019-02-07T04:53:26.804Z,46.1
2019-02-07T04:54:16.297Z,46.1
2019-02-07T04:55:07.247Z,46.1
2019-02-07T04:55:56.958Z,46.1
2019-02-07T04:56:47.322Z,46
2019-02-07T04:57:36.651Z,46.1
2019-02-07T04:58:27.139Z,46
2019-02-07T04:59:16.984Z,46
2019-02-07T05:00:10.425Z,46
2019-02-07T05:00:59.514Z,46
2019-02-07T05:01:47.679Z,45.9
2019-02-07T05:02:37.470Z,45.9
2019-02-07T05:03:27.598Z,45.9
2019-02-07T05:04:17.281Z,45.9
2019-02-07T05:05:07.468Z,45.9
2019-02-07T05:05:57.726Z,45.9
2019-02-07T05:06:48.134Z,45.9
2019-02-07T05:07:37.821Z,45.9
2019-02-07T05:08:27.845Z,45.9
2019-02-07T05:09:17.348Z,45.9
2019-02-07T05:10:10.557Z,45.9
2019-02-07T05:11:46.981Z,45.8
2019-02-07T05:12:37.884Z,45.8
2019-02-07T05:13:27.926Z,45.8
2019-02-07T05:14:17.448Z,45.8
2019-02-07T05:15:08.035Z,45.8
2019-02-07T05:15:59.133Z,45.8
2019-02-07T05:16:48.920Z,45.8
2019-02-07T05:17:38.782Z,45.8
2019-02-07T05:18:28.542Z,45.8
2019-02-07T05:19:19.780Z,45.8
2019-02-07T05:20:08.688Z,45.7
2019-02-07T05:20:57.327Z,45.8
2019-02-07T05:21:48.540Z,45.7
2019-02-07T05:22:38.593Z,45.7
2019-02-07T05:23:28.360Z,45.7
2019-02-07T05:24:18.681Z,45.7
2019-02-07T05:25:10.830Z,45.6
2019-02-07T05:25:59.371Z,45.6
2019-02-07T05:26:48.964Z,45.6
2019-02-07T05:27:40.052Z,45.6
2019-02-07T05:28:29.167Z,45.6
2019-02-07T05:29:19.625Z,45.6
2019-02-07T05:30:09.624Z,45.6
2019-02-07T05:30:59.139Z,45.6
2019-02-07T05:31:48.956Z,45.6
2019-02-07T05:32:41.325Z,45.6
2019-02-07T05:33:29.073Z,45.6
2019-02-07T05:34:22.007Z,45.6
2019-02-07T05:35:09.744Z,45.6
2019-02-07T05:35:59.576Z,45.5
2019-02-07T05:36:49.885Z,45.5
2019-02-07T05:37:39.612Z,45.5
2019-02-07T05:38:29.999Z,45.5
2019-02-07T05:39:19.541Z,45.5
2019-02-07T05:40:10.189Z,45.4
2019-02-07T05:41:00.131Z,45.4
2019-02-07T05:41:50.188Z,45.4
2019-02-07T05:42:39.418Z,45.4
2019-02-07T05:43:32.576Z,45.4
2019-02-07T05:44:19.778Z,45.4
2019-02-07T05:45:10.142Z,45.4
2019-02-07T05:46:00.166Z,45.4
2019-02-07T05:46:59.033Z,45.4
2019-02-07T05:47:40.378Z,45.4
2019-02-07T05:48:30.771Z,45.4
2019-02-07T05:49:20.386Z,45.4
2019-02-07T05:50:11.008Z,45.4
2019-02-07T05:51:01.130Z,45.3
2019-02-07T05:51:51.140Z,45.3
2019-02-07T05:52:42.738Z,45.3
2019-02-07T05:53:30.435Z,45.3
2019-02-07T05:54:21.313Z,45.3
2019-02-07T05:55:10.903Z,45.3
2019-02-07T05:56:00.858Z,45.3
2019-02-07T05:56:50.390Z,45.3
2019-02-07T05:57:41.063Z,45.3
2019-02-07T05:58:31.735Z,45.3
2019-02-07T05:59:20.813Z,45.3
2019-02-07T06:00:11.458Z,45.2
2019-02-07T06:01:01.218Z,45.2
2019-02-07T06:01:53.593Z,45.2
2019-02-07T06:02:41.903Z,45.2
2019-02-07T06:03:30.350Z,45.2
2019-02-07T06:06:19.052Z,45.1
2019-02-07T06:07:09.090Z,45.1
2019-02-07T06:07:59.412Z,45.1
2019-02-07T06:08:51.147Z,45.1
2019-02-07T06:09:39.825Z,45.1
2019-02-07T06:10:29.015Z,45.1
2019-02-07T06:11:19.625Z,45.1
2019-02-07T06:12:09.952Z,45.1
2019-02-07T06:12:59.776Z,45.1
2019-02-07T06:13:49.872Z,45.1
2019-02-07T06:14:40.151Z,45.1
2019-02-07T06:15:30.204Z,45
2019-02-07T06:16:19.131Z,45.1
2019-02-07T06:17:09.757Z,45
2019-02-07T06:18:01.351Z,45
2019-02-07T06:19:06.656Z,45
2019-02-07T06:19:40.491Z,44.9
2019-02-07T06:20:30.269Z,44.9
2019-02-07T06:21:21.211Z,44.9
2019-02-07T06:22:10.392Z,44.9
2019-02-07T06:22:59.624Z,44.9
2019-02-07T06:23:50.074Z,44.9
2019-02-07T06:24:40.013Z,44.9
2019-02-07T06:25:30.139Z,44.9
2019-02-07T06:26:20.677Z,44.9
2019-02-07T06:27:12.334Z,44.8
2019-02-07T06:28:01.126Z,44.8
2019-02-07T06:28:50.338Z,44.9
2019-02-07T06:29:41.506Z,44.8
2019-02-07T06:30:30.698Z,44.8
2019-02-07T06:31:20.533Z,44.8
2019-02-07T06:32:11.361Z,44.8
2019-02-07T06:33:01.140Z,44.8
2019-02-07T06:33:51.883Z,44.8
2019-02-07T06:34:41.538Z,44.8
2019-02-07T06:35:31.056Z,44.8
2019-02-07T06:36:23.091Z,44.8
2019-02-07T06:37:11.453Z,44.8
2019-02-07T06:38:01.538Z,44.7
2019-02-07T06:38:51.546Z,44.7
2019-02-07T06:39:41.773Z,44.7
2019-02-07T06:40:30.400Z,44.7
2019-02-07T06:41:21.790Z,44.7
2019-02-07T06:42:11.920Z,44.7
2019-02-07T06:43:01.619Z,44.6
2019-02-07T06:43:51.361Z,44.7
2019-02-07T06:44:42.060Z,44.6
2019-02-07T06:45:33.930Z,44.6
2019-02-07T06:46:22.163Z,44.6
2019-02-07T06:47:18.278Z,44.6
2019-02-07T06:48:02.152Z,44.6
2019-02-07T06:48:51.965Z,44.6
2019-02-07T06:49:42.403Z,44.6
2019-02-07T06:50:32.434Z,44.6
2019-02-07T06:51:21.564Z,44.6
2019-02-07T06:52:12.519Z,44.6
2019-02-07T06:53:02.900Z,44.6
2019-02-07T06:53:52.327Z,44.6
2019-02-07T06:54:44.419Z,44.6
2019-02-07T06:55:33.132Z,44.5
2019-02-07T06:56:23.040Z,44.5
2019-02-07T06:57:12.563Z,44.5
2019-02-07T06:58:03.907Z,44.5
2019-02-07T06:58:55.758Z,44.5
2019-02-07T07:01:10.920Z,44.5
2019-02-07T07:01:21.370Z,44.4
2019-02-07T07:02:11.818Z,44.4
2019-02-07T07:03:01.603Z,44.4
2019-02-07T07:03:54.611Z,44.4
2019-02-07T07:06:18.947Z,44.3
2019-02-07T07:07:09.400Z,44.3
2019-02-07T07:07:59.067Z,44.3
2019-02-07T07:08:49.417Z,44.3
2019-02-07T07:09:39.964Z,44.3
2019-02-07T07:10:28.677Z,44.3
2019-02-07T07:11:19.600Z,44.3
2019-02-07T07:12:09.457Z,44.3
2019-02-07T07:13:02.056Z,44.3
2019-02-07T07:13:49.497Z,44.3
2019-02-07T07:14:40.059Z,44.3
2019-02-07T07:15:29.672Z,44.3
2019-02-07T07:16:19.920Z,44.3
2019-02-07T07:17:09.434Z,44.3
2019-02-07T07:17:59.784Z,44.3
2019-02-07T07:18:49.608Z,44.3
2019-02-07T07:19:40.158Z,44.3
2019-02-07T07:20:29.831Z,44.4
2019-02-07T07:21:20.010Z,44.4
2019-02-07T07:22:11.421Z,44.4
2019-02-07T07:23:00.674Z,44.4
2019-02-07T07:23:50.473Z,44.4
2019-02-07T07:24:40.224Z,44.4
2019-02-07T07:25:31.218Z,44.3
2019-02-07T07:26:20.358Z,44.3
2019-02-07T07:27:10.419Z,44.3
2019-02-07T07:28:00.186Z,44.3
2019-02-07T07:28:51.118Z,44.2
2019-02-07T07:29:40.925Z,44.2
2019-02-07T07:30:30.913Z,44.1
2019-02-07T07:31:22.331Z,44.1
2019-02-07T07:32:11.151Z,44.1
2019-02-07T07:33:00.915Z,44.1
2019-02-07T07:33:50.421Z,44
2019-02-07T07:34:40.471Z,44
2019-02-07T07:35:31.094Z,44
2019-02-07T07:36:21.158Z,43.9
2019-02-07T07:37:11.148Z,43.5
2019-02-07T07:38:01.718Z,42.3
2019-02-07T07:38:51.495Z,40.6
2019-02-07T07:39:41.012Z,38.6
2019-02-07T07:40:32.385Z,36.4
2019-02-07T07:41:21.950Z,34.4
2019-02-07T07:42:12.020Z,32.7
2019-02-07T07:43:01.245Z,31.3
2019-02-07T07:43:52.422Z,30.1
2019-02-07T07:44:41.360Z,29
2019-02-07T07:45:32.247Z,28.2
2019-02-07T07:46:21.455Z,27.5
2019-02-07T07:47:11.834Z,26.9
2019-02-07T07:48:01.008Z,26.4
2019-02-07T07:48:52.417Z,25.9
2019-02-07T07:49:43.489Z,25.5
2019-02-07T07:50:32.382Z,25.1
2019-02-07T07:51:22.674Z,24.8
2019-02-07T07:52:11.901Z,24.4
2019-02-07T07:53:03.602Z,23.9
2019-02-07T07:53:52.839Z,27.2
2019-02-07T07:54:42.701Z,31.3
2019-02-07T07:55:31.946Z,31.8
2019-02-07T07:56:22.459Z,35.1
2019-02-07T07:57:12.552Z,36.5
2019-02-07T07:58:02.871Z,35.5
2019-02-07T07:58:54.686Z,31.9
2019-02-07T07:59:42.692Z,28.4
2019-02-07T08:00:33.049Z,26.8
2019-02-07T08:01:23.146Z,25.9
2019-02-07T08:02:13.552Z,25.3
2019-02-07T08:03:02.914Z,24.9
2019-02-07T08:03:53.239Z,24.6
2019-02-07T08:04:43.406Z,24.3
2019-02-07T08:05:33.121Z,24
2019-02-07T08:06:23.014Z,23.8
2019-02-07T08:07:12.899Z,23.6
2019-02-07T08:08:05.403Z,23.5
2019-02-07T08:08:53.018Z,23.3
2019-02-07T08:09:43.670Z,23.2
2019-02-07T08:10:33.805Z,23.1
2019-02-07T08:11:24.063Z,22.9
2019-02-07T08:12:12.964Z,22.8
2019-02-07T08:13:03.717Z,22.7
2019-02-07T08:13:53.663Z,22.6
2019-02-07T08:14:43.723Z,22.4
2019-02-07T08:15:33.803Z,22.4
2019-02-07T08:16:24.513Z,22.3
2019-02-07T08:17:16.280Z,22.2
2019-02-07T08:18:04.238Z,22.1
2019-02-07T08:18:53.183Z,22
2019-02-07T08:19:43.809Z,21.9
2019-02-07T08:20:33.901Z,21.9
2019-02-07T08:21:24.581Z,21.8
2019-02-07T08:22:13.976Z,21.8
2019-02-07T08:23:04.331Z,21.7
2019-02-07T08:23:54.357Z,21.6
2019-02-07T08:24:44.164Z,21.6
2019-02-07T08:25:34.765Z,21.5
2019-02-07T08:26:26.424Z,21.4
2019-02-07T08:27:14.298Z,21.4
2019-02-07T08:28:04.921Z,21.4
2019-02-07T08:28:53.906Z,21.3
2019-02-07T08:29:45.058Z,21.3
2019-02-07T08:30:41.998Z,21.2
2019-02-07T08:33:05.043Z,21.1
2019-02-07T08:33:55.342Z,21.1
2019-02-07T08:34:44.926Z,21
2019-02-07T08:35:37.195Z,20.5
2019-02-07T08:36:24.965Z,29.5
2019-02-07T08:37:15.962Z,31.9
2019-02-07T08:38:05.659Z,33.6
2019-02-07T08:38:55.234Z,35.7
2019-02-07T08:39:45.202Z,36.8
2019-02-07T08:40:36.178Z,36.9
2019-02-07T08:41:26.152Z,36.7
2019-02-07T08:42:15.105Z,36.3
2019-02-07T08:43:06.268Z,36.3
2019-02-07T08:43:56.023Z,36.4
2019-02-07T08:44:47.850Z,36.5
2019-02-07T08:45:36.443Z,36.7
2019-02-07T08:46:25.854Z,36.9
2019-02-07T08:47:15.814Z,37
2019-02-07T08:48:12.112Z,37.2
2019-02-07T08:48:56.664Z,37.3
2019-02-07T08:49:46.815Z,37.3
2019-02-07T08:50:36.630Z,37.2
2019-02-07T08:51:25.984Z,37.2
2019-02-07T08:52:16.682Z,37.2
2019-02-07T08:53:06.660Z,37.2
2019-02-07T08:53:58.196Z,37.1
2019-02-07T08:54:46.812Z,37.1
2019-02-07T08:55:40.034Z,37.2
2019-02-07T08:56:27.032Z,37.2
2019-02-07T08:57:17.869Z,37.2
2019-02-07T08:58:06.751Z,37.2
2019-02-07T08:58:56.810Z,37.3
2019-02-07T08:59:47.351Z,37.3
2019-02-07T09:00:37.214Z,37.3
2019-02-07T09:01:26.733Z,37.2
2019-02-07T09:02:17.036Z,37.3
2019-02-07T09:03:09.603Z,37.6
2019-02-07T09:03:57.446Z,37.9
2019-02-07T09:04:47.021Z,38.2
2019-02-07T09:05:37.006Z,38.4
2019-02-07T09:06:27.344Z,38.8
2019-02-07T09:07:17.449Z,39.3
2019-02-07T09:08:07.720Z,39.7
2019-02-07T09:08:57.910Z,40.1
2019-02-07T09:09:47.874Z,40.4
2019-02-07T09:10:37.358Z,40.8
2019-02-07T09:11:28.313Z,41
2019-02-07T09:12:19.746Z,41.4
2019-02-07T09:13:07.851Z,41.6
2019-02-07T09:13:59.255Z,41.9
2019-02-07T09:14:48.198Z,42.1
2019-02-07T09:15:40.647Z,42.4
2019-02-07T09:16:28.088Z,42.6
2019-02-07T09:17:19.778Z,42.9
2019-02-07T09:18:18.308Z,43.1
2019-02-07T09:18:58.210Z,43.3
2019-02-07T09:19:47.993Z,43.5
2019-02-07T09:20:38.710Z,43.8
2019-02-07T09:21:30.263Z,44
2019-02-07T09:22:18.998Z,44.2
2019-02-07T09:23:09.064Z,44.4
2019-02-07T09:23:58.280Z,44.6
2019-02-07T09:24:49.477Z,44.9
2019-02-07T09:25:39.222Z,45
2019-02-07T09:26:29.027Z,44.9
2019-02-07T09:27:18.648Z,44.8
2019-02-07T09:28:08.365Z,44.6
2019-02-07T09:28:59.195Z,44.5
2019-02-07T09:29:49.268Z,44.6
2019-02-07T09:30:40.605Z,44.8
2019-02-07T09:31:28.957Z,45.1
2019-02-07T09:32:19.185Z,45.3
2019-02-07T09:33:09.450Z,45.3
2019-02-07T09:34:00.794Z,45.2
2019-02-07T09:34:49.882Z,45.1
2019-02-07T09:35:39.681Z,45.1
2019-02-07T09:36:29.452Z,45
2019-02-07T09:37:20.048Z,45.1
2019-02-07T09:38:09.405Z,45.2
2019-02-07T09:38:59.924Z,45.4
2019-02-07T09:39:50.891Z,45.5
2019-02-07T09:40:39.539Z,45.6
2019-02-07T09:41:29.541Z,45.6
2019-02-07T09:42:19.861Z,45.4
2019-02-07T09:43:11.239Z,45.3
2019-02-07T09:44:00.268Z,45
2019-02-07T09:44:50.464Z,44.8
2019-02-07T09:45:40.118Z,44.7
2019-02-07T09:46:29.891Z,44.6
2019-02-07T09:47:20.233Z,44.5
2019-02-07T09:48:09.443Z,44.4
2019-02-07T09:49:02.451Z,44.3
2019-02-07T09:49:50.696Z,44.3
2019-02-07T09:50:40.433Z,44.2
2019-02-07T09:51:30.078Z,44.1
2019-02-07T09:52:20.368Z,44.1
2019-02-07T09:53:10.893Z,44
2019-02-07T09:54:01.363Z,44
2019-02-07T09:54:50.794Z,43.9
2019-02-07T09:55:41.163Z,43.9
2019-02-07T09:56:31.148Z,43.9
2019-02-07T09:57:21.228Z,43.9
2019-02-07T09:58:13.688Z,43.8
2019-02-07T09:59:04.010Z,43.8
2019-02-07T09:59:51.111Z,43.7
2019-02-07T10:00:41.420Z,43.6
2019-02-07T10:01:31.212Z,43.5
2019-02-07T10:02:21.030Z,43.4
2019-02-07T10:03:11.100Z,43.4
2019-02-07T10:04:02.183Z,43.1
2019-02-07T10:04:51.497Z,41.9
2019-02-07T10:07:20.850Z,37.9
2019-02-07T10:08:08.600Z,36.8
2019-02-07T10:08:58.982Z,39.6
2019-02-07T10:09:49.270Z,42.1
2019-02-07T10:10:39.309Z,41.7
2019-02-07T10:11:29.339Z,40.1
2019-02-07T10:12:18.884Z,38.8
2019-02-07T10:13:10.589Z,38
2019-02-07T10:13:59.579Z,37.4
2019-02-07T10:14:49.419Z,36.9
2019-02-07T10:15:40.079Z,36.4
2019-02-07T10:16:32.004Z,36.1
2019-02-07T10:17:18.984Z,35.6
2019-02-07T10:18:09.999Z,35.4
2019-02-07T10:18:59.924Z,35.1
2019-02-07T10:19:50.238Z,34.8
2019-02-07T10:20:42.259Z,34.6
2019-02-07T10:21:29.014Z,34.4
2019-02-07T10:22:21.861Z,34.2
2019-02-07T10:23:09.376Z,33.9
2019-02-07T10:24:00.256Z,33.8
2019-02-07T10:24:50.341Z,33.6
2019-02-07T10:25:41.393Z,33.4
2019-02-07T10:26:30.671Z,33.3
2019-02-07T10:27:20.518Z,33.1
2019-02-07T10:28:10.606Z,33
2019-02-07T10:29:00.450Z,32.8
2019-02-07T10:29:50.388Z,32.7
2019-02-07T10:30:40.527Z,32.6
2019-02-07T10:31:33.081Z,32.4
2019-02-07T10:32:20.856Z,32.3
2019-02-07T10:33:10.663Z,32.2
2019-02-07T10:34:01.221Z,32.1
2019-02-07T10:34:51.403Z,31.9
2019-02-07T10:35:40.810Z,31.8
2019-02-07T10:36:31.543Z,31.7
2019-02-07T10:37:21.534Z,31.6
2019-02-07T10:38:10.720Z,31.5
2019-02-07T10:39:01.320Z,31.4
2019-02-07T10:39:51.686Z,31.3
2019-02-07T10:40:43.143Z,31.2
2019-02-07T10:41:34.367Z,31.1
2019-02-07T10:42:21.577Z,31
2019-02-07T10:43:11.593Z,30.9
2019-02-07T10:44:01.488Z,30.8
2019-02-07T10:44:51.234Z,30.7
2019-02-07T10:45:42.100Z,30.7
2019-02-07T10:46:31.880Z,30.6
2019-02-07T10:47:21.435Z,30.5
2019-02-07T10:48:12.300Z,30.4
2019-02-07T10:49:01.760Z,30.4
2019-02-07T10:50:04.286Z,30.3
2019-02-07T10:50:42.231Z,30.2
2019-02-07T10:51:32.037Z,30.1
2019-02-07T10:52:21.169Z,30
2019-02-07T10:53:12.672Z,29.9
2019-02-07T10:54:02.420Z,29.7
2019-02-07T10:54:52.469Z,29.6
2019-02-07T10:55:41.486Z,29.4
2019-02-07T10:56:32.051Z,29.3
2019-02-07T10:57:22.216Z,29.1
2019-02-07T10:58:12.699Z,29
2019-02-07T10:59:04.729Z,28.9
2019-02-07T10:59:53.099Z,28.8
2019-02-07T11:00:42.589Z,28.7
2019-02-07T11:01:33.216Z,28.6
2019-02-07T11:02:22.586Z,28.5
2019-02-07T11:03:12.771Z,28.4
2019-02-07T11:04:03.408Z,28.4
2019-02-07T11:04:53.466Z,28.3
2019-02-07T11:05:43.281Z,28.2
2019-02-07T11:06:33.038Z,28.1
2019-02-07T11:07:23.631Z,28.1
2019-02-07T11:08:14.561Z,28
2019-02-07T11:09:03.546Z,27.9
2019-02-07T11:09:53.253Z,27.9
2019-02-07T11:11:33.976Z,27.8
2019-02-07T11:12:23.415Z,27.7
2019-02-07T11:13:14.055Z,27.7
2019-02-07T11:14:03.850Z,27.6
2019-02-07T11:14:53.593Z,27.6
2019-02-07T11:15:43.785Z,27.5
2019-02-07T11:16:34.032Z,27.5
2019-02-07T11:17:25.920Z,27.4
2019-02-07T11:18:14.113Z,27.4
2019-02-07T11:19:04.173Z,27.4
2019-02-07T11:19:53.492Z,27.3
2019-02-07T11:20:44.078Z,27.3